createdAt,value
2023-05-17T00:01:02.002Z,-24204.09
2023-05-17T00:03:29.006Z,-24204.46
2023-05-17T00:08:14.221Z,-24205.92
2023-05-17T00:10:41.177Z,-24205.42
2023-05-17T00:13:08.204Z,-24205.36
2023-05-17T00:15:35.462Z,-24205.48
2023-05-17T00:18:02.570Z,-24205.77
2023-05-17T00:20:29.726Z,-24206.32
2023-05-17T00:22:56.789Z,-24206.69
2023-05-17T00:25:23.871Z,-24206.97
2023-05-17T00:27:50.957Z,-24207.59
2023-05-17T00:30:17.949Z,-24208.12
2023-05-17T00:32:47.021Z,-24208.65
2023-05-17T00:35:16.881Z,-24209.21
2023-05-17T00:37:48.110Z,-24209.73
2023-05-17T00:40:16.470Z,-24210.20
2023-05-17T00:42:43.450Z,-24210.63
2023-05-17T00:45:11.043Z,-24210.85
2023-05-17T00:47:38.274Z,-24211.06
2023-05-17T00:50:06.406Z,-24211.19
2023-05-17T00:52:33.630Z,-24210.88
2023-05-17T00:55:00.633Z,-24210.79
2023-05-17T00:57:29.298Z,-24210.72
2023-05-17T00:59:56.370Z,-24210.48
2023-05-17T01:02:24.329Z,-24210.17
2023-05-17T01:04:51.432Z,-24209.86
2023-05-17T01:07:18.633Z,-24209.89
2023-05-17T01:09:47.034Z,-24210.14
2023-05-17T01:12:46.170Z,-24210.57
2023-05-17T01:15:23.291Z,-24210.79
2023-05-17T01:17:56.614Z,-24210.94
2023-05-17T01:20:36.354Z,-24211.25
2023-05-17T01:23:09.474Z,-24211.44
2023-05-17T01:26:14.326Z,-24211.78
2023-05-17T01:28:41.410Z,-24211.78
2023-05-17T01:31:08.869Z,-24211.94
2023-05-17T01:33:37.786Z,-24211.97
2023-05-17T01:36:05.209Z,-24211.84
2023-05-17T01:38:32.174Z,-24211.84
2023-05-17T01:41:00.583Z,-24212.00
2023-05-17T01:44:00.990Z,-24211.96
2023-05-17T01:46:40.971Z,-24212.03
2023-05-17T01:49:32.660Z,-24212.15
2023-05-17T01:52:09.046Z,-24212.06
2023-05-17T01:54:38.588Z,-24211.90
2023-05-17T01:57:07.876Z,-24211.93
2023-05-17T01:59:35.198Z,-24212.00
2023-05-17T02:02:09.356Z,-24211.84
2023-05-17T02:04:36.588Z,-24212.00
2023-05-17T02:07:03.921Z,-24211.94
2023-05-17T02:09:31.426Z,-24212.00
2023-05-17T02:11:58.597Z,-24211.44
2023-05-17T02:14:25.762Z,-24211.06
2023-05-17T02:16:53.001Z,-24210.23
2023-05-17T02:19:20.210Z,-24208.89
2023-05-17T02:21:47.396Z,-24207.87
2023-05-17T02:24:14.764Z,-24206.97
2023-05-17T02:26:43.450Z,-24206.26
2023-05-17T02:29:11.365Z,-24205.45
2023-05-17T02:31:38.379Z,-24204.46
2023-05-17T02:34:05.402Z,-24203.47
2023-05-17T02:36:32.723Z,-24202.79
2023-05-17T02:38:59.665Z,-24202.45
2023-05-17T02:41:26.644Z,-24202.04
2023-05-17T02:43:53.991Z,-24202.20
2023-05-17T02:46:22.001Z,-24202.42
2023-05-17T02:48:49.433Z,-24202.39
2023-05-17T02:51:17.170Z,-24202.32
2023-05-17T02:53:44.680Z,-24202.07
2023-05-17T02:56:12.618Z,-24202.07
2023-05-17T02:58:39.946Z,-24202.11
2023-05-17T03:01:07.071Z,-24202.42
2023-05-17T03:03:34.391Z,-24202.70
2023-05-17T03:06:02.601Z,-24202.91
2023-05-17T03:08:29.853Z,-24203.38
2023-05-17T03:10:57.608Z,-24204.06
2023-05-17T03:13:24.873Z,-24204.21
2023-05-17T03:15:51.871Z,-24204.37
2023-05-17T03:18:19.076Z,-24204.68
2023-05-17T03:20:46.244Z,-24205.11
2023-05-17T03:23:13.468Z,-24205.48
2023-05-17T03:25:51.446Z,-24206.11
2023-05-17T03:28:18.799Z,-24206.82
2023-05-17T03:30:46.266Z,-24207.53
2023-05-17T03:33:14.657Z,-24207.93
2023-05-17T03:35:42.366Z,-24208.31
2023-05-17T03:38:09.766Z,-24208.89
2023-05-17T03:40:36.889Z,-24209.21
2023-05-17T03:43:04.047Z,-24209.61
2023-05-17T03:45:31.379Z,-24209.79
2023-05-17T03:47:58.522Z,-24210.38
2023-05-17T03:50:26.664Z,-24210.94
2023-05-17T03:52:53.739Z,-24211.66
2023-05-17T03:55:21.000Z,-24212.62
2023-05-17T03:57:48.080Z,-24213.86
2023-05-17T04:00:21.293Z,-24215.16
2023-05-17T04:02:48.939Z,-24216.21
2023-05-17T04:05:16.789Z,-24217.21
2023-05-17T04:07:45.992Z,-24218.42
2023-05-17T04:10:13.329Z,-24219.54
2023-05-17T04:12:40.313Z,-24220.90
2023-05-17T04:15:07.881Z,-24221.89
2023-05-17T04:17:36.472Z,-24222.60
2023-05-17T04:20:06.558Z,-24223.59
2023-05-17T04:22:33.985Z,-24224.86
2023-05-17T04:25:01.524Z,-24226.16
2023-05-17T04:27:29.136Z,-24227.06
2023-05-17T04:29:56.392Z,-24227.81
2023-05-17T04:32:24.320Z,-24229.14
2023-05-17T04:34:52.311Z,-24230.84
2023-05-17T04:37:20.267Z,-24232.20
2023-05-17T04:39:49.516Z,-24233.38
2023-05-17T04:42:16.606Z,-24234.80
2023-05-17T04:44:47.666Z,-24236.32
2023-05-17T04:47:14.949Z,-24237.28
2023-05-17T04:49:42.004Z,-24238.18
2023-05-17T04:52:09.460Z,-24238.86
2023-05-17T04:54:36.800Z,-24239.91
2023-05-17T04:57:04.564Z,-24241.71
2023-05-17T05:00:07.805Z,-24243.35
2023-05-17T05:02:35.280Z,-24244.99
2023-05-17T05:05:05.026Z,-24246.79
2023-05-17T05:07:33.835Z,-24248.33
2023-05-17T05:10:01.553Z,-24249.70
2023-05-17T05:12:28.800Z,-24250.36
2023-05-17T05:14:57.136Z,-24251.19
2023-05-17T05:17:25.371Z,-24252.06
2023-05-17T05:19:53.991Z,-24253.36
2023-05-17T05:22:21.395Z,-24254.71
2023-05-17T05:24:48.383Z,-24255.92
2023-05-17T05:27:15.784Z,-24257.07
2023-05-17T05:29:43.095Z,-24258.61
2023-05-17T05:32:11.544Z,-24259.73
2023-05-17T05:34:43.301Z,-24261.15
2023-05-17T05:37:10.533Z,-24262.82
2023-05-17T05:39:37.719Z,-24264.52
2023-05-17T05:42:05.243Z,-24266.07
2023-05-17T05:44:32.961Z,-24267.93
2023-05-17T05:47:00.660Z,-24269.60
2023-05-17T05:49:27.738Z,-24271.29
2023-05-17T05:51:55.362Z,-24273.12
2023-05-17T05:54:22.849Z,-24274.63
2023-05-17T05:56:51.512Z,-24276.40
2023-05-17T05:59:19.269Z,-24278.25
2023-05-17T06:01:46.639Z,-24280.42
2023-05-17T06:04:13.826Z,-24283.20
2023-05-17T06:06:41.494Z,-24286.29
2023-05-17T06:09:12.644Z,-24288.83
2023-05-17T06:11:39.939Z,-24291.82
2023-05-17T06:14:07.062Z,-24294.82
2023-05-17T06:16:34.689Z,-24297.54
2023-05-17T06:19:01.943Z,-24300.38
2023-05-17T06:21:29.161Z,-24302.66
2023-05-17T06:23:56.301Z,-24305.54
2023-05-17T06:26:23.411Z,-24307.97
2023-05-17T06:28:50.662Z,-24309.99
2023-05-17T06:31:19.693Z,-24312.61
2023-05-17T06:33:48.909Z,-24315.20
2023-05-17T06:36:16.481Z,-24316.93
2023-05-17T06:38:43.798Z,-24319.06
2023-05-17T06:41:10.993Z,-24322.39
2023-05-17T06:43:38.161Z,-24325.94
2023-05-17T06:46:05.241Z,-24329.55
2023-05-17T06:48:32.450Z,-24333.25
2023-05-17T06:50:59.590Z,-24337.82
2023-05-17T06:53:27.527Z,-24342.90
2023-05-17T06:55:54.664Z,-24347.06
2023-05-17T06:58:21.728Z,-24350.82
2023-05-17T07:00:48.761Z,-24353.75
2023-05-17T07:03:15.899Z,-24355.72
2023-05-17T07:05:43.072Z,-24356.68
2023-05-17T07:08:10.201Z,-24357.02
2023-05-17T07:10:37.311Z,-24358.22
2023-05-17T07:13:04.271Z,-24360.87
2023-05-17T07:15:31.563Z,-24363.46
2023-05-17T07:17:59.618Z,-24365.37
2023-05-17T07:20:26.750Z,-24365.46
2023-05-17T07:22:53.787Z,-24365.62
2023-05-17T07:25:21.679Z,-24366.23
2023-05-17T07:27:48.773Z,-24366.50
2023-05-17T07:30:15.801Z,-24366.85
2023-05-17T07:32:42.900Z,-24367.98
2023-05-17T07:35:10.015Z,-24369.19
2023-05-17T07:37:37.165Z,-24370.42
2023-05-17T07:40:05.827Z,-24371.53
2023-05-17T07:42:33.339Z,-24372.72
2023-05-17T07:45:01.425Z,-24373.16
2023-05-17T07:47:28.634Z,-24372.88
2023-05-17T07:49:55.734Z,-24372.85
2023-05-17T07:52:22.917Z,-24373.03
2023-05-17T07:54:50.036Z,-24373.46
2023-05-17T07:57:17.270Z,-24373.89
2023-05-17T07:59:44.338Z,-24374.39
2023-05-17T08:02:11.616Z,-24375.19
2023-05-17T08:04:38.669Z,-24376.20
2023-05-17T08:07:06.199Z,-24377.56
2023-05-17T08:09:33.618Z,-24377.77
2023-05-17T08:12:02.026Z,-24378.24
2023-05-17T08:14:29.185Z,-24379.56
2023-05-17T08:16:56.484Z,-24380.51
2023-05-17T08:19:23.573Z,-24381.01
2023-05-17T08:21:50.759Z,-24381.10
2023-05-17T08:24:18.157Z,-24380.72
2023-05-17T08:26:45.331Z,-24380.42
2023-05-17T08:29:12.395Z,-24380.05
2023-05-17T08:31:39.571Z,-24380.21
2023-05-17T08:34:06.812Z,-24380.51
2023-05-17T08:36:34.023Z,-24381.22
2023-05-17T08:39:01.231Z,-24381.65
2023-05-17T08:41:29.744Z,-24382.30
2023-05-17T08:43:57.191Z,-24382.61
2023-05-17T08:46:25.045Z,-24383.19
2023-05-17T08:48:52.294Z,-24383.44
2023-05-17T08:51:22.438Z,-24384.42
2023-05-17T08:53:50.817Z,-24385.25
2023-05-17T08:56:20.967Z,-24385.80
2023-05-17T09:01:19.198Z,-24387.50
2023-05-17T09:03:48.735Z,-24389.81
2023-05-17T09:06:20.908Z,-24392.33
2023-05-17T09:08:48.309Z,-24394.42
2023-05-17T09:11:24.489Z,-24395.50
2023-05-17T09:13:51.837Z,-24396.05
2023-05-17T09:16:21.429Z,-24396.85
2023-05-17T09:18:55.652Z,-24398.08
2023-05-17T09:21:23.716Z,-24400.11
2023-05-17T09:24:05.634Z,-24402.11
2023-05-17T09:26:39.282Z,-24404.07
2023-05-17T09:29:10.640Z,-24405.21
2023-05-17T09:31:37.696Z,-24406.17
2023-05-17T09:34:06.626Z,-24407.15
2023-05-17T09:36:34.015Z,-24408.71
2023-05-17T09:39:02.188Z,-24410.96
2023-05-17T09:41:33.250Z,-24413.33
2023-05-17T09:44:01.467Z,-24416.03
2023-05-17T09:46:29.181Z,-24418.77
2023-05-17T09:48:56.972Z,-24422.30
2023-05-17T09:51:39.710Z,-24425.22
2023-05-17T09:54:07.453Z,-24428.07
2023-05-17T09:56:35.302Z,-24430.47
2023-05-17T09:59:02.826Z,-24431.63
2023-05-17T10:01:30.981Z,-24432.92
2023-05-17T10:04:03.012Z,-24434.21
2023-05-17T10:06:44.073Z,-24435.22
2023-05-17T10:09:14.187Z,-24436.46
2023-05-17T10:11:43.215Z,-24438.46
2023-05-17T10:14:12.267Z,-24441.31
2023-05-17T10:19:07.286Z,-24445.33
2023-05-17T10:21:34.577Z,-24446.62
2023-05-17T10:24:05.058Z,-24449.25
2023-05-17T10:26:32.174Z,-24453.18
2023-05-17T10:29:01.077Z,-24456.31
2023-05-17T10:31:29.865Z,-24457.96
2023-05-17T10:33:57.521Z,-24458.98
2023-05-17T10:36:24.985Z,-24459.69
2023-05-17T10:38:52.080Z,-24460.08
2023-05-17T10:41:21.602Z,-24460.12
2023-05-17T10:43:48.742Z,-24460.97
2023-05-17T10:46:16.663Z,-24462.41
2023-05-17T10:48:49.110Z,-24463.24
2023-05-17T10:51:18.995Z,-24464.04
2023-05-17T10:54:08.531Z,-24465.14
2023-05-17T10:56:35.660Z,-24466.43
2023-05-17T10:59:15.037Z,-24467.29
2023-05-17T11:02:07.885Z,-24466.61
2023-05-17T11:04:39.515Z,-24464.86
2023-05-17T11:07:20.356Z,-24462.87
2023-05-17T11:10:06.306Z,-24461.62
2023-05-17T11:12:38.405Z,-24460.97
2023-05-17T11:15:15.222Z,-24459.81
2023-05-17T11:17:51.930Z,-24458.98
2023-05-17T11:20:25.756Z,-24458.18
2023-05-17T11:22:57.220Z,-24456.98
2023-05-17T11:25:24.165Z,-24456.24
2023-05-17T11:27:52.137Z,-24455.36
2023-05-17T11:30:27.001Z,-24453.67
2023-05-17T11:33:11.010Z,-24452.32
2023-05-17T11:35:44.794Z,-24451.21
2023-05-17T11:38:30.483Z,-24449.78
2023-05-17T11:40:57.967Z,-24448.49
2023-05-17T11:43:27.996Z,-24447.75
2023-05-17T11:46:01.583Z,-24447.69
2023-05-17T11:48:30.378Z,-24447.75
2023-05-17T11:50:59.856Z,-24447.20
2023-05-17T11:53:28.740Z,-24446.21
2023-05-17T11:55:56.112Z,-24445.88
2023-05-17T11:58:26.757Z,-24445.54
2023-05-17T12:00:56.021Z,-24444.96
2023-05-17T12:03:27.425Z,-24443.95
2023-05-17T12:06:15.091Z,-24443.24
2023-05-17T12:08:46.309Z,-24442.60
2023-05-17T12:11:15.701Z,-24442.05
2023-05-17T12:13:42.954Z,-24441.74
2023-05-17T12:16:14.492Z,-24442.32
2023-05-17T12:18:45.620Z,-24443.55
2023-05-17T12:21:16.208Z,-24444.71
2023-05-17T12:23:44.542Z,-24445.14
2023-05-17T12:26:24.169Z,-24445.67
2023-05-17T12:28:59.001Z,-24446.15
2023-05-17T12:31:30.120Z,-24447.57
2023-05-17T12:33:59.396Z,-24449.31
2023-05-17T12:36:27.571Z,-24450.63
2023-05-17T12:38:54.988Z,-24451.86
2023-05-17T12:41:23.204Z,-24453.61
2023-05-17T12:43:50.537Z,-24455.39
2023-05-17T12:46:22.120Z,-24456.98
2023-05-17T12:48:51.158Z,-24458.08
2023-05-17T12:51:21.773Z,-24458.36
2023-05-17T12:53:53.307Z,-24459.29
2023-05-17T12:56:22.571Z,-24460.15
2023-05-17T12:59:16.912Z,-24460.54
2023-05-17T13:01:45.548Z,-24461.22
2023-05-17T13:04:13.247Z,-24462.07
2023-05-17T13:07:01.202Z,-24462.60
2023-05-17T13:09:32.577Z,-24463.82
2023-05-17T13:12:00.296Z,-24465.45
2023-05-17T13:14:44.393Z,-24466.09
2023-05-17T13:17:33.814Z,-24467.13
2023-05-17T13:20:01.443Z,-24468.05
2023-05-17T13:22:28.562Z,-24469.55
2023-05-17T13:24:56.086Z,-24472.53
2023-05-17T13:27:23.103Z,-24474.85
2023-05-17T13:29:50.102Z,-24477.00
2023-05-17T13:32:17.166Z,-24479.20
2023-05-17T13:34:44.231Z,-24480.00
2023-05-17T13:37:12.656Z,-24479.93
2023-05-17T13:39:41.297Z,-24479.39
2023-05-17T13:42:08.632Z,-24479.60
2023-05-17T13:44:36.344Z,-24480.33
2023-05-17T13:47:03.353Z,-24479.42
2023-05-17T13:49:31.478Z,-24478.01
2023-05-17T13:51:58.910Z,-24476.14
2023-05-17T13:54:26.276Z,-24474.18
2023-05-17T13:56:55.507Z,-24473.02
2023-05-17T13:59:22.662Z,-24472.31
2023-05-17T14:01:49.715Z,-24471.88
2023-05-17T14:04:17.312Z,-24471.36
2023-05-17T14:06:44.881Z,-24470.26
2023-05-17T14:09:13.674Z,-24469.12
2023-05-17T14:11:41.043Z,-24468.79
2023-05-17T14:14:08.106Z,-24466.95
2023-05-17T14:16:35.209Z,-24464.16
2023-05-17T14:19:04.576Z,-24461.80
2023-05-17T14:21:36.013Z,-24459.38
2023-05-17T14:24:03.955Z,-24458.42
2023-05-17T14:26:33.043Z,-24458.21
2023-05-17T14:29:01.057Z,-24456.67
2023-05-17T14:31:30.071Z,-24455.57
2023-05-17T14:33:57.753Z,-24454.32
2023-05-17T14:36:25.115Z,-24452.44
2023-05-17T14:38:52.258Z,-24450.36
2023-05-17T14:41:19.427Z,-24449.84
2023-05-17T14:43:46.408Z,-24449.01
2023-05-17T14:46:15.301Z,-24448.46
2023-05-17T14:48:42.358Z,-24448.15
2023-05-17T14:51:09.448Z,-24447.90
2023-05-17T14:53:36.833Z,-24448.36
2023-05-17T14:56:04.041Z,-24448.45
2023-05-17T14:58:31.146Z,-24447.72
2023-05-17T15:01:05.440Z,-24447.66
2023-05-17T15:03:34.569Z,-24448.03
2023-05-17T15:06:05.128Z,-24448.24
2023-05-17T15:08:34.787Z,-24448.15
2023-05-17T15:11:02.166Z,-24447.29
2023-05-17T15:13:29.185Z,-24446.40
2023-05-17T15:15:56.212Z,-24446.31
2023-05-17T15:18:24.124Z,-24446.18
2023-05-17T15:20:51.318Z,-24445.73
2023-05-17T15:23:18.368Z,-24444.99
2023-05-17T15:25:45.732Z,-24444.56
2023-05-17T15:28:12.925Z,-24444.32
2023-05-17T15:30:41.982Z,-24443.79
2023-05-17T15:33:09.420Z,-24443.43
2023-05-17T15:35:37.253Z,-24442.90
2023-05-17T15:38:06.140Z,-24441.80
2023-05-17T15:40:34.112Z,-24440.88
2023-05-17T15:43:01.295Z,-24440.51
2023-05-17T15:45:29.035Z,-24440.17
2023-05-17T15:47:57.333Z,-24439.65
2023-05-17T15:50:24.526Z,-24439.19
2023-05-17T15:52:51.689Z,-24439.01
2023-05-17T15:55:18.821Z,-24439.10
2023-05-17T15:57:46.847Z,-24438.92
2023-05-17T16:00:15.249Z,-24438.54
2023-05-17T16:02:42.291Z,-24437.59
2023-05-17T16:05:09.815Z,-24437.19
2023-05-17T16:07:37.056Z,-24437.19
2023-05-17T16:10:04.290Z,-24437.50
2023-05-17T16:12:31.417Z,-24437.75
2023-05-17T16:14:58.449Z,-24437.47
2023-05-17T16:17:25.437Z,-24437.13
2023-05-17T16:19:52.649Z,-24436.95
2023-05-17T16:22:19.848Z,-24436.12
2023-05-17T16:24:46.781Z,-24435.59
2023-05-17T16:27:13.739Z,-24435.63
2023-05-17T16:29:40.977Z,-24435.81
2023-05-17T16:32:08.478Z,-24435.75
2023-05-17T16:34:36.278Z,-24435.41
2023-05-17T16:37:04.840Z,-24434.77
2023-05-17T16:39:32.630Z,-24433.93
2023-05-17T16:41:59.826Z,-24433.17
2023-05-17T16:44:26.882Z,-24432.56
2023-05-17T16:46:53.866Z,-24432.25
2023-05-17T16:49:20.957Z,-24432.00
2023-05-17T16:51:50.021Z,-24431.76
2023-05-17T16:54:17.056Z,-24431.18
2023-05-17T16:56:44.196Z,-24430.35
2023-05-17T16:59:11.581Z,-24429.03
2023-05-17T17:01:38.672Z,-24428.32
2023-05-17T17:04:06.274Z,-24427.79
2023-05-17T17:06:34.009Z,-24427.15
2023-05-17T17:09:01.835Z,-24426.45
2023-05-17T17:11:28.885Z,-24425.19
2023-05-17T17:13:55.880Z,-24423.96
2023-05-17T17:16:22.934Z,-24422.91
2023-05-17T17:18:50.172Z,-24422.18
2023-05-17T17:21:17.424Z,-24421.38
2023-05-17T17:23:44.674Z,-24420.73
2023-05-17T17:26:12.007Z,-24420.03
2023-05-17T17:28:39.213Z,-24419.23
2023-05-17T17:31:06.818Z,-24417.97
2023-05-17T17:33:34.488Z,-24416.56
2023-05-17T17:36:02.869Z,-24415.05
2023-05-17T17:38:29.844Z,-24414.13
2023-05-17T17:40:56.918Z,-24413.39
2023-05-17T17:43:23.850Z,-24412.56
2023-05-17T17:45:50.875Z,-24411.73
2023-05-17T17:48:17.837Z,-24410.59
2023-05-17T17:50:44.969Z,-24409.12
2023-05-17T17:53:12.158Z,-24407.89
2023-05-17T17:55:39.264Z,-24406.69
2023-05-17T17:58:06.896Z,-24405.55
2023-05-17T18:00:33.966Z,-24404.60
2023-05-17T18:03:01.191Z,-24403.89
2023-05-17T18:05:28.488Z,-24402.88
2023-05-17T18:07:55.820Z,-24401.80
2023-05-17T18:10:22.847Z,-24400.36
2023-05-17T18:12:51.710Z,-24399.10
2023-05-17T18:15:18.978Z,-24397.77
2023-05-17T18:17:46.054Z,-24396.08
2023-05-17T18:20:13.080Z,-24394.45
2023-05-17T18:22:40.293Z,-24393.04
2023-05-17T18:25:10.786Z,-24391.75
2023-05-17T18:27:37.821Z,-24390.18
2023-05-17T18:30:05.709Z,-24388.39
2023-05-17T18:32:32.961Z,-24386.67
2023-05-17T18:35:00.551Z,-24385.04
2023-05-17T18:37:27.858Z,-24383.31
2023-05-17T18:39:55.469Z,-24382.36
2023-05-17T18:42:24.975Z,-24381.38
2023-05-17T18:44:52.149Z,-24379.62
2023-05-17T18:47:19.276Z,-24377.83
2023-05-17T18:49:47.190Z,-24376.67
2023-05-17T18:52:14.238Z,-24375.19
2023-05-17T18:54:41.313Z,-24373.56
2023-05-17T18:57:11.441Z,-24371.99
2023-05-17T18:59:38.465Z,-24370.63
2023-05-17T19:02:06.559Z,-24369.16
2023-05-17T19:04:33.701Z,-24367.40
2023-05-17T19:07:02.804Z,-24365.89
2023-05-17T19:09:30.161Z,-24364.85
2023-05-17T19:11:57.307Z,-24363.52
2023-05-17T19:14:24.397Z,-24362.22
2023-05-17T19:16:51.910Z,-24360.74
2023-05-17T19:19:19.055Z,-24359.51
2023-05-17T19:21:46.174Z,-24357.94
2023-05-17T19:24:13.213Z,-24356.28
2023-05-17T19:26:40.180Z,-24355.01
2023-05-17T19:29:07.589Z,-24353.97
2023-05-17T19:31:34.647Z,-24352.49
2023-05-17T19:34:02.037Z,-24351.29
2023-05-17T19:36:28.994Z,-24350.24
2023-05-17T19:38:56.069Z,-24348.67
2023-05-17T19:41:23.241Z,-24347.28
2023-05-17T19:43:50.339Z,-24346.05
2023-05-17T19:46:17.431Z,-24345.12
2023-05-17T19:48:44.725Z,-24344.04
2023-05-17T19:51:11.882Z,-24342.97
2023-05-17T19:53:51.616Z,-24341.89
2023-05-17T19:56:20.044Z,-24340.96
2023-05-17T19:58:47.410Z,-24339.61
2023-05-17T20:01:14.433Z,-24338.56
2023-05-17T20:03:41.670Z,-24337.29
2023-05-17T20:06:14.457Z,-24336.36
2023-05-17T20:08:42.030Z,-24335.25
2023-05-17T20:11:09.171Z,-24334.11
2023-05-17T20:13:40.531Z,-24333.09
2023-05-17T20:16:14.538Z,-24331.77
2023-05-17T20:18:45.397Z,-24330.63
2023-05-17T20:21:15.402Z,-24328.96
2023-05-17T20:23:42.666Z,-24327.21
2023-05-17T20:26:16.261Z,-24325.97
2023-05-17T20:28:46.355Z,-24324.49
2023-05-17T20:31:13.515Z,-24322.33
2023-05-17T20:33:40.856Z,-24320.02
2023-05-17T20:36:10.081Z,-24317.61
2023-05-17T20:38:37.008Z,-24315.05
2023-05-17T20:41:07.561Z,-24312.70
2023-05-17T20:43:35.258Z,-24310.51
2023-05-17T20:46:07.286Z,-24308.07
2023-05-17T20:48:34.717Z,-24305.57
2023-05-17T20:51:02.313Z,-24303.22
2023-05-17T20:53:30.523Z,-24301.80
2023-05-17T20:55:58.101Z,-24301.00
2023-05-17T20:58:25.200Z,-24299.95
2023-05-17T21:00:53.087Z,-24299.23
2023-05-17T21:03:20.244Z,-24298.59
2023-05-17T21:05:47.528Z,-24297.66
2023-05-17T21:08:14.520Z,-24296.64
2023-05-17T21:10:46.452Z,-24295.68
2023-05-17T21:13:14.734Z,-24294.57
2023-05-17T21:15:41.974Z,-24293.40
2023-05-17T21:18:12.271Z,-24292.22
2023-05-17T21:20:39.509Z,-24290.99
2023-05-17T21:23:06.467Z,-24289.50
2023-05-17T21:25:35.103Z,-24288.11
2023-05-17T21:28:02.389Z,-24286.54
2023-05-17T21:30:29.743Z,-24285.00
2023-05-17T21:32:57.173Z,-24283.48
2023-05-17T21:35:24.200Z,-24282.03
2023-05-17T21:37:51.245Z,-24280.82
2023-05-17T21:40:18.928Z,-24279.70
2023-05-17T21:42:46.261Z,-24278.56
2023-05-17T21:45:14.786Z,-24277.26
2023-05-17T21:47:41.918Z,-24276.12
2023-05-17T21:50:10.055Z,-24275.16
2023-05-17T21:52:37.241Z,-24273.93
2023-05-17T21:55:04.747Z,-24272.75
2023-05-17T21:57:36.212Z,-24271.63
2023-05-17T22:00:08.077Z,-24270.28
2023-05-17T22:02:35.394Z,-24268.76
2023-05-17T22:05:02.556Z,-24267.37
2023-05-17T22:07:29.722Z,-24265.95
2023-05-17T22:09:58.412Z,-24264.92
2023-05-17T22:12:26.370Z,-24264.00
2023-05-17T22:14:54.389Z,-24262.70
2023-05-17T22:17:29.643Z,-24261.34
2023-05-17T22:20:03.349Z,-24259.63
2023-05-17T22:22:31.890Z,-24258.00
2023-05-17T22:24:59.014Z,-24256.26
2023-05-17T22:27:26.288Z,-24254.59
2023-05-17T22:29:53.393Z,-24252.92
2023-05-17T22:32:20.600Z,-24251.81
2023-05-17T22:34:47.688Z,-24250.76
2023-05-17T22:37:17.910Z,-24249.51
2023-05-17T22:39:45.228Z,-24248.12
2023-05-17T22:42:12.327Z,-24246.67
2023-05-17T22:44:39.308Z,-24244.87
2023-05-17T22:47:07.669Z,-24242.86
2023-05-17T22:49:35.075Z,-24241.06
2023-05-17T22:52:06.905Z,-24239.67
2023-05-17T22:54:37.213Z,-24238.21
2023-05-17T22:57:05.105Z,-24236.91
2023-05-17T22:59:33.075Z,-24235.55
2023-05-17T23:02:01.181Z,-24234.21
2023-05-17T23:04:30.480Z,-24233.01
2023-05-17T23:07:02.615Z,-24231.28
2023-05-17T23:09:30.151Z,-24229.88
2023-05-17T23:11:59.551Z,-24228.21
2023-05-17T23:14:26.652Z,-24226.29
2023-05-17T23:16:53.681Z,-24224.30
2023-05-17T23:19:21.271Z,-24222.10
2023-05-17T23:21:49.215Z,-24219.90
2023-05-17T23:24:16.193Z,-24218.14
2023-05-17T23:26:43.232Z,-24217.24
2023-05-17T23:29:10.846Z,-24216.65
2023-05-17T23:31:38.735Z,-24216.21
2023-05-17T23:34:07.061Z,-24215.13
2023-05-17T23:36:34.191Z,-24214.26
2023-05-17T23:39:01.316Z,-24213.58
2023-05-17T23:41:29.600Z,-24213.24
2023-05-17T23:43:57.269Z,-24213.02
2023-05-17T23:46:24.382Z,-24212.06
2023-05-17T23:48:51.535Z,-24209.39
2023-05-17T23:51:19.942Z,-24206.63
2023-05-17T23:53:49.257Z,-24203.16
2023-05-17T23:56:18.010Z,-24200.68
2023-05-17T23:58:46.061Z,-24199.19
